ANAHUAC TX US current weather conditions

sailwx.info

Wind from 217 at 5 knots gusting 7

Air temperature 27.2° C
Dewpoint 22.8° C

Last reported at 2020-Aug-04 03:12 UTC.
Time now 2020-Aug-04 05:15 UTC

Location: N 29°40' W 094°26'.
View on Google Maps.

See reports from other nearby stations

  
Tides and Currents Weather Stations Pressure Air Temp Water Temp Dewpoint Dewpoint Depression Visibility Wind Speed Wind Dir Waves Ship Positions
date/time (UTC)wind fromknots sea level pressurealtimeterstation pressurevisibilityair tempwater tempwave heightnotes
2020-Aug-04 03:12 217 5 gusting 7 27.2
2020-Aug-04 02:12 187 4 gusting 6 27.8
2020-Aug-04 01:12 196 6 gusting 11 30.6
2020-Aug-04 00:12 226 7 gusting 12 32.2
2020-Aug-03 23:12 268 4 gusting 7 35.0
2020-Aug-03 22:12 277 2 gusting 6 34.4
2020-Aug-03 21:12 328 4 gusting 7 33.3
2020-Aug-03 20:12 325 4 gusting 8 33.3
2020-Aug-03 19:12 299 6 gusting 10 32.8
2020-Aug-03 18:12 328 6 gusting 12 31.7
2020-Aug-03 17:12 281 5 gusting 9 31.1
2020-Aug-03 16:12 311 6 gusting 10 29.4
2020-Aug-03 15:12 308 6 gusting 9 28.3
2020-Aug-03 14:12 302 3 gusting 5 26.7
2020-Aug-03 13:12 340 2 gusting 3 24.4
2020-Aug-03 12:12 327 2 gusting 3 23.9
2020-Aug-03 11:12 282 2 gusting 2 24.4
2020-Aug-03 10:12 24.4
2020-Aug-03 09:12 287 3 gusting 4 24.4
2020-Aug-03 08:12 291 2 gusting 2 25.0
2020-Aug-03 07:12 295 3 gusting 4 25.6
2020-Aug-03 06:12 248 1 gusting 2 26.1
2020-Aug-03 05:12 197 1 gusting 3 26.1
2020-Aug-03 04:12 184 4 gusting 5 26.1
2020-Aug-03 03:12 187 4 gusting 5 26.7
2020-Aug-03 02:12 171 3 gusting 5 27.2
2020-Aug-03 01:12 169 4 gusting 6 28.9
2020-Aug-03 00:12 165 6 gusting 9 31.1
2020-Aug-02 23:12 179 6 gusting 10 31.7
2020-Aug-02 22:12 004 2 gusting 8 33.9
2020-Aug-02 21:12 044 2 gusting 8 32.8
2020-Aug-02 20:12 042 4 gusting 8 32.2
2020-Aug-02 19:12 010 5 gusting 7 30.6
2020-Aug-02 18:12 352 5 gusting 10 30.6
2020-Aug-02 17:12 331 5 gusting 9 30.0
2020-Aug-02 16:12 332 6 gusting 10 28.9
2020-Aug-02 15:12 324 6 gusting 7 27.8
2020-Aug-02 14:12 329 6 gusting 7 26.1
2020-Aug-02 13:12 335 2 gusting 3 23.9
2020-Aug-02 12:12 323 2 gusting 4 23.3
2020-Aug-02 11:12 23.9
2020-Aug-02 10:12 330 2 gusting 3 23.3
2020-Aug-02 09:12 017 2 gusting 3 23.9
2020-Aug-02 08:12 040 2 gusting 4 23.9
2020-Aug-02 07:12 032 3 gusting 4 23.9
2020-Aug-02 06:12 030 3 gusting 4 24.4
2020-Aug-02 05:12 25.6